createdAt,value
2022-08-29T00:02:18.044Z,24.2
2022-08-29T00:08:02.227Z,24.2
2022-08-29T00:13:42.831Z,24.2
2022-08-29T00:19:27.851Z,24.2
2022-08-29T00:24:54.444Z,24.2
2022-08-29T00:30:19.435Z,24.2
2022-08-29T00:35:57.957Z,24.2
2022-08-29T00:41:26.477Z,24.1
2022-08-29T00:46:48.853Z,24.2
2022-08-29T00:52:10.255Z,24.2
2022-08-29T00:57:15.113Z,24.2
2022-08-29T01:02:57.353Z,24.2
2022-08-29T01:08:38.039Z,24.1
2022-08-29T01:14:29.392Z,24.1
2022-08-29T01:19:50.828Z,24.1
2022-08-29T01:25:12.104Z,24.1
2022-08-29T01:30:49.710Z,24.2
2022-08-29T01:37:01.087Z,24.1
2022-08-29T01:42:41.465Z,24.1
2022-08-29T01:48:22.378Z,24.2
2022-08-29T01:53:58.763Z,24.1
2022-08-29T01:59:39.920Z,24.1
2022-08-29T02:05:03.825Z,24.1
2022-08-29T02:10:41.063Z,24.1
2022-08-29T02:16:01.856Z,24.1
2022-08-29T02:21:38.836Z,24.1
2022-08-29T02:27:43.436Z,24.1
2022-08-29T02:32:55.003Z,24.1
2022-08-29T02:38:25.205Z,24.1
2022-08-29T02:44:01.326Z,24.1
2022-08-29T02:49:53.092Z,24.1
2022-08-29T02:55:18.234Z,24.1
2022-08-29T03:00:42.584Z,24.1
2022-08-29T03:06:04.458Z,24.1
2022-08-29T03:11:32.534Z,24.1
2022-08-29T03:17:10.225Z,24.1
2022-08-29T03:22:48.010Z,23.8
2022-08-29T03:28:34.310Z,23.3
2022-08-29T03:33:43.569Z,23.1
2022-08-29T03:39:06.637Z,23.1
2022-08-29T03:44:45.686Z,23.1
2022-08-29T03:50:22.894Z,23.1
2022-08-29T03:56:01.407Z,23.1
2022-08-29T04:01:38.799Z,23.1
2022-08-29T04:07:20.682Z,22.9
2022-08-29T04:12:57.137Z,22.9
2022-08-29T04:18:44.374Z,22.8
2022-08-29T04:24:22.144Z,22.7
2022-08-29T04:30:28.074Z,22.7
2022-08-29T04:36:15.557Z,22.6
2022-08-29T04:41:53.334Z,22.6
2022-08-29T04:47:31.841Z,22.3
2022-08-29T04:53:15.581Z,22.6
2022-08-29T04:58:45.780Z,22.8
2022-08-29T05:04:14.569Z,22.7
2022-08-29T05:10:01.258Z,22.7
2022-08-29T05:15:38.692Z,22.6
2022-08-29T05:21:22.498Z,22.6
2022-08-29T05:27:03.555Z,22.6
2022-08-29T05:32:53.178Z,22.7
2022-08-29T05:38:33.499Z,23
2022-08-29T05:44:12.825Z,23.1
2022-08-29T05:50:02.551Z,23.3
2022-08-29T05:55:39.733Z,23.3
2022-08-29T06:01:20.011Z,23.4
2022-08-29T06:07:00.977Z,23.4
2022-08-29T06:12:41.630Z,23.4
2022-08-29T06:18:18.915Z,23.5
2022-08-29T06:24:06.565Z,23.5
2022-08-29T06:30:20.352Z,23.6
2022-08-29T06:35:58.908Z,23.6
2022-08-29T06:41:36.338Z,23.6
2022-08-29T06:47:16.645Z,23.6
2022-08-29T06:53:26.299Z,23.7
2022-08-29T06:59:15.185Z,23.7
2022-08-29T07:05:11.849Z,23.7
2022-08-29T07:11:13.130Z,23.8
2022-08-29T07:16:54.182Z,23.8
2022-08-29T07:22:48.900Z,23.8
2022-08-29T07:28:30.848Z,23.8
2022-08-29T07:34:28.380Z,23.8
2022-08-29T07:40:20.454Z,23.8
2022-08-29T07:46:09.891Z,23.8
2022-08-29T07:52:01.745Z,23.8
2022-08-29T07:57:43.928Z,23.8
2022-08-29T08:03:10.060Z,23.8
2022-08-29T08:09:05.283Z,23.8
2022-08-29T08:14:53.662Z,23.9
2022-08-29T08:20:31.735Z,23.9
2022-08-29T08:26:21.351Z,23.9
2022-08-29T08:32:01.009Z,23.9
2022-08-29T08:37:41.765Z,23.9
2022-08-29T08:43:23.242Z,23.9
2022-08-29T08:48:50.354Z,23.9
2022-08-29T08:54:31.537Z,23.9
2022-08-29T08:59:53.270Z,23.9
2022-08-29T09:05:33.679Z,23.9
2022-08-29T09:10:59.023Z,23.9
2022-08-29T09:16:42.628Z,23.9
2022-08-29T09:23:06.943Z,23.9
2022-08-29T09:28:49.490Z,23.9
2022-08-29T09:34:50.760Z,23.9
2022-08-29T09:40:39.333Z,23.9
2022-08-29T09:46:20.086Z,23.9
2022-08-29T09:51:57.972Z,24
2022-08-29T09:57:45.226Z,24
2022-08-29T10:03:37.790Z,24
2022-08-29T10:09:21.852Z,24
2022-08-29T10:14:53.044Z,24
2022-08-29T10:21:01.311Z,24
2022-08-29T10:26:39.524Z,24
2022-08-29T10:32:02.590Z,24
2022-08-29T10:37:34.897Z,24
2022-08-29T10:43:25.578Z,24
2022-08-29T10:49:04.254Z,24.1
2022-08-29T10:54:59.497Z,24.1
2022-08-29T11:00:42.807Z,24.1
2022-08-29T11:06:22.291Z,24.1
2022-08-29T11:12:00.063Z,24.1
2022-08-29T11:17:41.271Z,24.1
2022-08-29T11:23:24.595Z,24.1
2022-08-29T11:29:09.239Z,24.1
2022-08-29T11:34:49.229Z,24.1
2022-08-29T11:47:40.694Z,24.1
2022-08-29T11:53:19.811Z,24.1
2022-08-29T11:59:03.955Z,24.1
2022-08-29T12:05:00.502Z,24.1
2022-08-29T12:11:09.092Z,24.1
2022-08-29T12:16:36.388Z,24.1
2022-08-29T12:22:39.863Z,24.1
2022-08-29T12:29:00.139Z,24.1
2022-08-29T12:35:23.841Z,24.1
2022-08-29T12:41:16.179Z,24.1
2022-08-29T12:46:23.854Z,24.1
2022-08-29T12:52:01.345Z,24.1
2022-08-29T12:57:27.643Z,24.1
2022-08-29T13:03:15.322Z,24.1
2022-08-29T13:08:53.639Z,24.1
2022-08-29T13:14:37.982Z,24.2
2022-08-29T13:20:47.373Z,24.1
2022-08-29T13:26:29.460Z,24.1
2022-08-29T13:32:04.850Z,24.2
2022-08-29T13:37:54.987Z,24.2
2022-08-29T13:43:39.591Z,24.2
2022-08-29T13:49:18.568Z,24.2
2022-08-29T13:55:00.898Z,24.2
2022-08-29T14:00:51.935Z,24.2
2022-08-29T14:07:41.052Z,24.3
2022-08-29T14:13:24.506Z,24.2
2022-08-29T14:19:14.534Z,24.2
2022-08-29T14:24:39.276Z,24.1
2022-08-29T14:30:27.795Z,24
2022-08-29T14:36:36.522Z,24.1
2022-08-29T14:42:22.725Z,24.1
2022-08-29T14:48:02.315Z,24.1
2022-08-29T14:53:47.076Z,24.1
2022-08-29T15:00:03.759Z,24.1
2022-08-29T15:05:29.806Z,24.1
2022-08-29T15:11:18.325Z,24.1
2022-08-29T15:16:56.131Z,24.1
2022-08-29T15:24:08.732Z,24.1
2022-08-29T15:29:55.154Z,24.1
2022-08-29T15:35:35.309Z,24.1
2022-08-29T15:41:21.310Z,24.1
2022-08-29T15:47:11.937Z,24.1
2022-08-29T15:52:51.325Z,24.1
2022-08-29T15:58:41.479Z,24.1
2022-08-29T16:04:47.904Z,24.1
2022-08-29T16:10:45.397Z,24.1
